Aviation Digital Data Service (ADDS)

Output produced by METARs form (1527 UTC 20 May 2018)
found at http://aviationweather.gov/adds/metars/
 
KUTS 201522Z AUTO VRB05G14KT 10SM FEW024 BKN031 28/21 A3002 RMK AO2 T02830211